Time;durP1;ratioP1;P1;durP2;ratioP2;P2;SDS_P1;SDS_P2;PMS_P1;PMS_P2;Temp;Humidity;BMP_temperature;BMP_pressure;BME280_temperature;BME280_humidity;BME280_pressure;Samples;Min_cycle;Max_cycle;Signal;HPM_P1;HPM_P2
2021/07/05 00:00:00;;;;;;;;;;;16.40;1.00;;;;;;5105989;28;19916;-60
2021/07/05 00:02:26;;;;;;;;;;;16.40;1.00;;;;;;5109475;28;19918;-61
2021/07/05 00:04:51;;;;;;;;;;;16.30;1.00;;;;;;5109820;28;19933;-59
2021/07/05 00:07:19;;;;;;;;;;;16.30;1.00;;;;;;5107527;28;19915;-58
2021/07/05 00:09:45;;;;;;;;;;;16.20;1.00;;;;;;5088387;28;20310;-61
2021/07/05 00:12:11;;;;;;;;;;;16.20;1.00;;;;;;5088942;28;20020;-58
2021/07/05 00:14:36;;;;;;;;;;;16.20;1.00;;;;;;5089484;28;19959;-61
2021/07/05 00:17:02;;;;;;;;;;;16.20;1.00;;;;;;5088642;28;20262;-61
2021/07/05 00:19:28;;;;;;;;;;;16.20;1.00;;;;;;5088333;28;19908;-61
2021/07/05 00:21:54;;;;;;;;;;;16.10;1.00;;;;;;5088579;28;20399;-60
2021/07/05 00:24:19;;;;;;;;;;;16.10;1.00;;;;;;5088921;28;19908;-61
2021/07/05 00:26:45;;;;;;;;;;;16.00;1.00;;;;;;5088555;28;19908;-60
2021/07/05 00:29:10;;;;;;;;;;;16.00;1.00;;;;;;5088297;28;20291;-60
2021/07/05 00:31:36;;;;;;;;;;;15.90;1.00;;;;;;5089097;28;19912;-61
2021/07/05 00:34:01;;;;;;;;;;;15.90;1.00;;;;;;5088398;28;20348;-61
2021/07/05 00:36:27;;;;;;;;;;;15.80;1.00;;;;;;5088594;28;19912;-60
2021/07/05 00:38:52;;;;;;;;;;;15.80;1.00;;;;;;5087703;28;20250;-60
2021/07/05 00:41:18;;;;;;;;;;;15.70;1.00;;;;;;5088275;28;19915;-60
2021/07/05 00:43:43;;;;;;;;;;;15.70;1.00;;;;;;5088623;28;20068;-59
2021/07/05 00:46:09;;;;;;;;;;;15.70;1.00;;;;;;5088889;28;19908;-60
2021/07/05 00:48:34;;;;;;;;;;;15.70;1.00;;;;;;5087059;28;19908;-62
2021/07/05 00:51:00;;;;;;;;;;;15.60;1.00;;;;;;5088570;28;19912;-61
2021/07/05 00:53:25;;;;;;;;;;;15.50;1.00;;;;;;5088361;28;19923;-59
2021/07/05 00:55:51;;;;;;;;;;;15.50;1.00;;;;;;5088442;28;19908;-60
2021/07/05 00:58:17;;;;;;;;;;;15.40;1.00;;;;;;5088811;28;19918;-62
2021/07/05 01:00:44;;;;;;;;;;;15.30;1.00;;;;;;5109095;28;20230;-61
2021/07/05 01:03:09;;;;;;;;;;;15.30;1.00;;;;;;5086381;28;19970;-60
2021/07/05 01:05:35;;;;;;;;;;;15.30;1.00;;;;;;5088534;28;19908;-61
2021/07/05 01:08:00;;;;;;;;;;;15.30;1.00;;;;;;5086933;28;20002;-61
2021/07/05 01:10:26;;;;;;;;;;;15.20;1.00;;;;;;5086610;28;19971;-61
2021/07/05 01:12:52;;;;;;;;;;;15.20;1.00;;;;;;5090690;28;19919;-61
2021/07/05 01:15:21;;;;;;;;;;;15.20;1.00;;;;;;5092384;28;19977;-61
2021/07/05 01:17:46;;;;;;;;;;;15.20;1.00;;;;;;5090979;28;19916;-62
2021/07/05 01:20:15;;;;;;;;;;;15.20;1.00;;;;;;5091918;28;19914;-60
2021/07/05 01:22:40;;;;;;;;;;;15.20;1.00;;;;;;5090313;28;19912;-59
2021/07/05 01:25:07;;;;;;;;;;;15.20;1.00;;;;;;5073881;28;19912;-61
2021/07/05 01:27:33;;;;;;;;;;;15.20;1.00;;;;;;5071304;28;20349;-61
2021/07/05 01:29:58;;;;;;;;;;;15.10;1.00;;;;;;5072156;28;19919;-61
2021/07/05 01:32:24;;;;;;;;;;;15.10;1.00;;;;;;5071501;28;20293;-61
2021/07/05 01:34:49;;;;;;;;;;;15.20;1.00;;;;;;5072271;28;19955;-60
2021/07/05 01:37:15;;;;;;;;;;;15.20;1.00;;;;;;5071648;28;19919;-60
2021/07/05 01:39:40;;;;;;;;;;;15.20;1.00;;;;;;5071413;28;20424;-61
2021/07/05 01:42:06;;;;;;;;;;;15.20;1.00;;;;;;5071539;28;19908;-61
2021/07/05 01:44:32;;;;;;;;;;;15.20;1.00;;;;;;5071906;28;20046;-61
2021/07/05 01:46:57;;;;;;;;;;;15.20;1.00;;;;;;5071135;28;20019;-61
2021/07/05 01:49:23;;;;;;;;;;;15.20;1.00;;;;;;5071083;28;20357;-62
2021/07/05 01:51:49;;;;;;;;;;;15.10;1.00;;;;;;5071181;28;19917;-60
2021/07/05 01:54:15;;;;;;;;;;;15.10;1.00;;;;;;5070922;28;19965;-61
2021/07/05 01:56:41;;;;;;;;;;;15.10;1.00;;;;;;5070846;28;19919;-60
2021/07/05 01:59:06;;;;;;;;;;;15.10;1.00;;;;;;5089751;28;19931;-60
2021/07/05 02:01:32;;;;;;;;;;;15.10;1.00;;;;;;5112167;28;19916;-61
2021/07/05 02:03:57;;;;;;;;;;;15.10;1.00;;;;;;5111629;28;20003;-61
2021/07/05 02:06:23;;;;;;;;;;;15.10;1.00;;;;;;5111858;28;20006;-61
2021/07/05 02:08:49;;;;;;;;;;;15.00;1.00;;;;;;5095963;28;19924;-61
2021/07/05 02:11:14;;;;;;;;;;;15.00;1.00;;;;;;5091209;28;20379;-61
2021/07/05 02:13:39;;;;;;;;;;;15.10;1.00;;;;;;5091627;28;19998;-60
2021/07/05 02:16:05;;;;;;;;;;;15.20;1.00;;;;;;5091805;28;20349;-60
2021/07/05 02:18:32;;;;;;;;;;;15.10;1.00;;;;;;5071809;28;20009;-61
2021/07/05 02:21:00;;;;;;;;;;;15.10;1.00;;;;;;5090800;28;19927;-61
2021/07/05 02:23:25;;;;;;;;;;;15.20;1.00;;;;;;5090264;28;19977;-61
2021/07/05 02:25:51;;;;;;;;;;;15.20;1.00;;;;;;5090396;28;20313;-62
2021/07/05 02:28:18;;;;;;;;;;;15.20;1.00;;;;;;5090362;28;19927;-60
2021/07/05 02:30:47;;;;;;;;;;;15.20;1.00;;;;;;5090910;28;20257;-60
2021/07/05 02:33:14;;;;;;;;;;;15.20;1.00;;;;;;5090811;28;20008;-60
2021/07/05 02:35:40;;;;;;;;;;;15.20;1.00;;;;;;5091103;28;20238;-59
2021/07/05 02:38:08;;;;;;;;;;;15.20;1.00;;;;;;5089716;28;19998;-61
2021/07/05 02:40:35;;;;;;;;;;;15.30;1.00;;;;;;5090333;28;19908;-60
2021/07/05 02:43:01;;;;;;;;;;;15.30;1.00;;;;;;5090859;28;20007;-61
2021/07/05 02:45:28;;;;;;;;;;;15.30;1.00;;;;;;5090713;28;19919;-61
2021/07/05 02:47:55;;;;;;;;;;;15.30;1.00;;;;;;5081407;28;19917;-60
2021/07/05 02:50:21;;;;;;;;;;;15.30;1.00;;;;;;5090403;28;20022;-60
2021/07/05 02:52:46;;;;;;;;;;;15.30;1.00;;;;;;5090933;28;20472;-61
2021/07/05 02:55:12;;;;;;;;;;;15.30;1.00;;;;;;5090404;28;19908;-60
2021/07/05 02:57:38;;;;;;;;;;;15.20;1.00;;;;;;5090359;28;19908;-59
2021/07/05 03:00:09;;;;;;;;;;;15.20;1.00;;;;;;5108419;28;19920;-59
2021/07/05 03:02:35;;;;;;;;;;;15.30;1.00;;;;;;5081434;28;20527;-60
2021/07/05 03:05:01;;;;;;;;;;;15.30;1.00;;;;;;5070416;28;19909;-60
2021/07/05 03:07:27;;;;;;;;;;;15.30;1.00;;;;;;5071699;28;19928;-61
2021/07/05 03:09:53;;;;;;;;;;;15.40;1.00;;;;;;5089211;28;19916;-61
2021/07/05 03:12:18;;;;;;;;;;;15.40;1.00;;;;;;5090284;28;20376;-58
2021/07/05 03:14:44;;;;;;;;;;;15.40;1.00;;;;;;5089892;28;19965;-61
2021/07/05 03:17:09;;;;;;;;;;;15.50;1.00;;;;;;5089327;28;20076;-59
2021/07/05 03:19:35;;;;;;;;;;;15.50;1.00;;;;;;5089208;28;19913;-57
2021/07/05 03:22:00;;;;;;;;;;;15.50;1.00;;;;;;5088946;28;19990;-60
2021/07/05 03:24:26;;;;;;;;;;;15.50;1.00;;;;;;5089154;28;20273;-59
2021/07/05 03:26:51;;;;;;;;;;;15.50;1.00;;;;;;5089102;28;19912;-57
2021/07/05 03:29:17;;;;;;;;;;;15.40;1.00;;;;;;5088903;28;19959;-59
2021/07/05 03:31:42;;;;;;;;;;;15.50;1.00;;;;;;5089347;28;19920;-60
2021/07/05 03:34:07;;;;;;;;;;;15.50;1.00;;;;;;5089087;28;19915;-59
2021/07/05 03:36:33;;;;;;;;;;;15.60;1.00;;;;;;5088934;28;20299;-58
2021/07/05 03:38:58;;;;;;;;;;;15.60;1.00;;;;;;5087992;28;20003;-59
2021/07/05 03:41:24;;;;;;;;;;;15.60;1.00;;;;;;5088947;28;20294;-60
2021/07/05 03:43:49;;;;;;;;;;;15.70;1.00;;;;;;5089368;28;19912;-60
2021/07/05 03:46:15;;;;;;;;;;;15.70;1.00;;;;;;5089744;28;19908;-60
2021/07/05 03:48:40;;;;;;;;;;;15.80;1.00;;;;;;5088082;28;20327;-59
2021/07/05 03:51:06;;;;;;;;;;;15.80;1.00;;;;;;5089199;28;19998;-59
2021/07/05 03:53:31;;;;;;;;;;;15.90;1.00;;;;;;5088722;28;19958;-60
2021/07/05 03:55:57;;;;;;;;;;;15.90;1.00;;;;;;5089940;28;19919;-61
2021/07/05 03:58:23;;;;;;;;;;;16.00;1.00;;;;;;5092693;28;19912;-60
2021/07/05 04:00:48;;;;;;;;;;;16.00;1.00;;;;;;5109200;28;20518;-60
2021/07/05 04:03:15;;;;;;;;;;;16.00;1.00;;;;;;5109303;28;20014;-62
2021/07/05 04:05:41;;;;;;;;;;;16.10;1.00;;;;;;5109554;28;19911;-60
2021/07/05 04:08:06;;;;;;;;;;;16.20;1.00;;;;;;5100415;28;19915;-60
2021/07/05 04:10:33;;;;;;;;;;;16.20;1.00;;;;;;5088336;28;19912;-62
2021/07/05 04:12:59;;;;;;;;;;;16.40;1.00;;;;;;5089518;28;19908;-62
2021/07/05 04:15:24;;;;;;;;;;;16.40;1.00;;;;;;5089587;28;20325;-62
2021/07/05 04:17:50;;;;;;;;;;;16.50;1.00;;;;;;5088071;28;19974;-61
2021/07/05 04:20:20;;;;;;;;;;;16.60;1.00;;;;;;5088651;28;19919;-62
2021/07/05 04:22:46;;;;;;;;;;;16.70;1.00;;;;;;5088184;28;19912;-62
2021/07/05 04:25:12;;;;;;;;;;;16.80;1.00;;;;;;5069606;28;19921;-61
2021/07/05 04:27:38;;;;;;;;;;;16.80;1.00;;;;;;5067266;28;20365;-61
2021/07/05 04:30:05;;;;;;;;;;;16.80;1.00;;;;;;5064149;28;19924;-61
2021/07/05 04:32:30;;;;;;;;;;;16.70;1.00;;;;;;5067644;28;20057;-61
2021/07/05 04:34:56;;;;;;;;;;;16.80;1.00;;;;;;5068211;28;19984;-61
2021/07/05 04:37:22;;;;;;;;;;;16.80;1.00;;;;;;5066002;28;19934;-61
2021/07/05 04:39:47;;;;;;;;;;;16.80;1.00;;;;;;5068177;28;19909;-59
2021/07/05 04:42:13;;;;;;;;;;;16.90;1.00;;;;;;5068825;28;19916;-61
2021/07/05 04:44:40;;;;;;;;;;;17.10;1.00;;;;;;5068493;28;20300;-60
2021/07/05 04:47:06;;;;;;;;;;;17.20;1.00;;;;;;5066548;28;20065;-63
2021/07/05 04:49:32;;;;;;;;;;;17.30;1.00;;;;;;5067586;28;19920;-61
2021/07/05 04:51:58;;;;;;;;;;;17.60;1.00;;;;;;5065790;28;19920;-60
2021/07/05 04:54:24;;;;;;;;;;;17.90;1.00;;;;;;5065897;28;19913;-61
2021/07/05 04:56:49;;;;;;;;;;;18.10;1.00;;;;;;5066136;28;19920;-61
2021/07/05 04:59:15;;;;;;;;;;;18.30;1.00;;;;;;5086264;28;20008;-61
2021/07/05 05:01:43;;;;;;;;;;;18.30;1.00;;;;;;5106203;28;20013;-61
2021/07/05 05:04:09;;;;;;;;;;;18.30;1.00;;;;;;5106088;28;19973;-61
2021/07/05 05:06:34;;;;;;;;;;;18.30;1.00;;;;;;5085749;28;20035;-64
2021/07/05 05:08:59;;;;;;;;;;;18.10;1.00;;;;;;5064671;28;19931;-64
2021/07/05 05:11:25;;;;;;;;;;;18.20;1.00;;;;;;5066856;28;19970;-63
2021/07/05 05:13:51;;;;;;;;;;;18.50;1.00;;;;;;5086175;28;20002;-64
2021/07/05 05:16:16;;;;;;;;;;;18.80;1.00;;;;;;5086435;28;19908;-60
2021/07/05 05:18:42;;;;;;;;;;;19.30;1.00;;;;;;5085295;28;20337;-65
2021/07/05 05:21:08;;;;;;;;;;;;;;;;;;5085124;28;19923;-59
2021/07/05 05:23:34;;;;;;;;;;;20.40;99.90;;;;;;5084923;28;19920;-62
2021/07/05 05:25:59;;;;;;;;;;;20.60;1.00;;;;;;5066487;28;19908;-62
2021/07/05 05:28:25;;;;;;;;;;;20.60;1.00;;;;;;5064721;28;19915;-61
2021/07/05 05:30:50;;;;;;;;;;;20.50;1.00;;;;;;5065001;28;19973;-61
2021/07/05 05:33:16;;;;;;;;;;;20.10;30.80;;;;;;5076281;28;20600;-62
2021/07/05 05:35:41;;;;;;;;;;;19.70;1.00;;;;;;5085503;28;19915;-61
2021/07/05 05:38:07;;;;;;;;;;;19.40;99.90;;;;;;5076465;28;19957;-61
2021/07/05 05:40:32;;;;;;;;;;;19.00;18.60;;;;;;5085084;28;19923;-62
2021/07/05 05:42:58;;;;;;;;;;;18.70;99.90;;;;;;5074353;28;20433;-59
2021/07/05 05:45:24;;;;;;;;;;;18.50;1.00;;;;;;5075936;28;20012;-61
2021/07/05 05:47:49;;;;;;;;;;;18.40;1.00;;;;;;5074318;28;20329;-61
2021/07/05 05:50:15;;;;;;;;;;;18.40;1.00;;;;;;5073726;28;19931;-59
2021/07/05 05:52:41;;;;;;;;;;;18.50;1.00;;;;;;5082746;28;19923;-60
2021/07/05 05:55:07;;;;;;;;;;;18.60;1.00;;;;;;5074651;28;19991;-61
2021/07/05 05:57:32;;;;;;;;;;;18.90;1.00;;;;;;5083769;28;19920;-61
2021/07/05 05:59:59;;;;;;;;;;;19.20;99.90;;;;;;5104548;28;20007;-62
2021/07/05 06:02:25;;;;;;;;;;;19.50;99.90;;;;;;5108814;28;20004;-60
2021/07/05 06:04:51;;;;;;;;;;;19.70;1.00;;;;;;5109641;28;19908;-63
2021/07/05 06:07:17;;;;;;;;;;;19.90;1.00;;;;;;5106622;28;19915;-60
2021/07/05 06:09:42;;;;;;;;;;;20.00;99.90;;;;;;5087578;28;19924;-61
2021/07/05 06:12:08;;;;;;;;;;;20.10;90.60;;;;;;5087320;28;19949;-61
2021/07/05 06:14:34;;;;;;;;;;;20.20;1.00;;;;;;5088617;28;19912;-61
2021/07/05 06:16:59;;;;;;;;;;;20.30;1.00;;;;;;5088379;28;20314;-61
2021/07/05 06:19:25;;;;;;;;;;;20.40;1.00;;;;;;5087723;28;19909;-61
2021/07/05 06:21:50;;;;;;;;;;;20.70;1.00;;;;;;5087666;28;19909;-61
2021/07/05 06:24:16;;;;;;;;;;;21.00;99.90;;;;;;5087928;28;19908;-61
2021/07/05 06:26:41;;;;;;;;;;;21.20;1.00;;;;;;5087536;28;19908;-61
2021/07/05 06:29:07;;;;;;;;;;;21.40;99.90;;;;;;5087369;28;19908;-60
2021/07/05 06:31:36;;;;;;;;;;;21.70;1.00;;;;;;5088100;28;19939;-59
2021/07/05 06:34:02;;;;;;;;;;;22.10;1.00;;;;;;5089107;28;19908;-61
2021/07/05 06:36:28;;;;;;;;;;;22.20;99.90;;;;;;5090948;28;19908;-61
2021/07/05 06:38:53;;;;;;;;;;;22.00;99.90;;;;;;5090175;28;20673;-60
2021/07/05 06:41:19;;;;;;;;;;;21.80;99.90;;;;;;5090504;28;20406;-60
2021/07/05 06:43:44;;;;;;;;;;;21.60;1.00;;;;;;5090928;28;19954;-61
2021/07/05 06:46:10;;;;;;;;;;;21.50;1.00;;;;;;5091530;28;19934;-60
2021/07/05 06:48:35;;;;;;;;;;;21.40;1.00;;;;;;5090146;28;19912;-61
2021/07/05 06:51:01;;;;;;;;;;;21.20;1.00;;;;;;5090554;28;19935;-61
2021/07/05 06:53:27;;;;;;;;;;;21.10;1.00;;;;;;5089667;28;19916;-62
2021/07/05 06:55:52;;;;;;;;;;;21.00;1.00;;;;;;5090682;28;19960;-61
2021/07/05 06:58:18;;;;;;;;;;;21.00;99.90;;;;;;5090234;28;20330;-59
2021/07/05 07:00:45;;;;;;;;;;;21.00;99.90;;;;;;5091347;28;20065;-57
2021/07/05 07:03:10;;;;;;;;;;;20.90;99.90;;;;;;5090946;28;19916;-60
2021/07/05 07:05:36;;;;;;;;;;;21.00;99.90;;;;;;5091035;28;20339;-59
2021/07/05 07:08:02;;;;;;;;;;;21.00;99.90;;;;;;5083349;28;19916;-58
2021/07/05 07:10:28;;;;;;;;;;;21.00;99.90;;;;;;5069481;28;20003;-59
2021/07/05 07:12:55;;;;;;;;;;;21.30;99.90;;;;;;5070660;28;20417;-58
2021/07/05 07:15:24;;;;;;;;;;;21.60;1.00;;;;;;5070806;28;20007;-62
2021/07/05 07:20:15;;;;;;;;;;;22.30;99.90;;;;;;5085803;28;19961;-59
2021/07/05 07:22:41;;;;;;;;;;;22.40;99.90;;;;;;5092188;28;19908;-62
2021/07/05 07:25:09;;;;;;;;;;;22.60;88.80;;;;;;5080145;28;19916;-60
2021/07/05 07:27:34;;;;;;;;;;;22.70;1.00;;;;;;5071778;28;19909;-59
2021/07/05 07:30:00;;;;;;;;;;;22.70;1.00;;;;;;5071795;28;19932;-61
2021/07/05 07:32:25;;;;;;;;;;;22.60;1.00;;;;;;5073214;28;20369;-59
2021/07/05 07:34:51;;;;;;;;;;;22.40;1.00;;;;;;5071490;28;19916;-61
2021/07/05 07:37:16;;;;;;;;;;;22.40;1.00;;;;;;5071266;28;20410;-58
2021/07/05 07:39:45;;;;;;;;;;;22.40;1.00;;;;;;5071624;28;20407;-58
2021/07/05 07:42:11;;;;;;;;;;;22.30;1.00;;;;;;5071215;28;19966;-56
2021/07/05 07:44:36;;;;;;;;;;;22.20;1.00;;;;;;5070817;28;19995;-59
2021/07/05 07:47:03;;;;;;;;;;;22.00;1.00;;;;;;5070502;28;20331;-58
2021/07/05 07:49:30;;;;;;;;;;;21.80;99.90;;;;;;5070204;28;19944;-59
2021/07/05 07:51:59;;;;;;;;;;;21.70;99.90;;;;;;5070998;28;19975;-59
2021/07/05 07:54:25;;;;;;;;;;;21.70;99.90;;;;;;5071354;28;19920;-56
2021/07/05 07:56:51;;;;;;;;;;;21.60;99.90;;;;;;5070804;28;20184;-58
2021/07/05 07:59:16;;;;;;;;;;;21.60;99.90;;;;;;5070639;28;19912;-60
2021/07/05 08:01:42;;;;;;;;;;;21.60;99.90;;;;;;5070593;28;19916;-59
2021/07/05 08:04:08;;;;;;;;;;;21.60;99.90;;;;;;5070826;28;19909;-60
2021/07/05 08:06:34;;;;;;;;;;;21.70;99.90;;;;;;5070537;28;19912;-57
2021/07/05 08:09:01;;;;;;;;;;;21.70;99.90;;;;;;5085576;28;20015;-61
2021/07/05 08:11:27;;;;;;;;;;;21.90;99.90;;;;;;5090466;28;19969;-58
2021/07/05 08:13:52;;;;;;;;;;;22.00;99.90;;;;;;5090828;28;19991;-60
2021/07/05 08:16:18;;;;;;;;;;;22.00;78.90;;;;;;5091254;28;19912;-57
2021/07/05 08:18:43;;;;;;;;;;;22.00;61.80;;;;;;5087932;28;20543;-60
2021/07/05 08:21:09;;;;;;;;;;;21.90;1.00;;;;;;5070117;28;19963;-60
2021/07/05 08:23:34;;;;;;;;;;;22.00;1.00;;;;;;5089836;28;19935;-60
2021/07/05 08:26:00;;;;;;;;;;;21.90;1.70;;;;;;5090626;28;20022;-60
2021/07/05 08:28:27;;;;;;;;;;;21.60;98.20;;;;;;5090773;28;19934;-60
2021/07/05 08:30:56;;;;;;;;;;;21.60;99.00;;;;;;5090878;28;19916;-59
2021/07/05 08:33:22;;;;;;;;;;;21.70;99.90;;;;;;5091333;28;19915;-59
2021/07/05 08:35:47;;;;;;;;;;;21.70;99.90;;;;;;5090604;28;19908;-61
2021/07/05 08:38:13;;;;;;;;;;;21.90;99.90;;;;;;5090808;28;19912;-58
2021/07/05 08:40:39;;;;;;;;;;;21.70;99.90;;;;;;5090332;28;19918;-60
2021/07/05 08:43:05;;;;;;;;;;;21.70;99.90;;;;;;5090270;28;20318;-60
2021/07/05 08:45:30;;;;;;;;;;;21.50;99.90;;;;;;5090312;28;19908;-61
2021/07/05 08:47:56;;;;;;;;;;;21.60;99.90;;;;;;5080557;28;19916;-55
2021/07/05 08:50:23;;;;;;;;;;;21.60;99.90;;;;;;5070232;28;19913;-57
2021/07/05 08:52:48;;;;;;;;;;;21.80;99.90;;;;;;5069757;28;19973;-58
2021/07/05 08:55:15;;;;;;;;;;;21.80;99.90;;;;;;5069573;28;19916;-57
2021/07/05 08:57:41;;;;;;;;;;;21.90;99.90;;;;;;5069361;28;20007;-56
2021/07/05 09:00:10;;;;;;;;;;;22.00;99.90;;;;;;5087905;28;19968;-57
2021/07/05 09:02:35;;;;;;;;;;;22.10;99.90;;;;;;5090699;28;19912;-59
2021/07/05 09:05:01;;;;;;;;;;;22.30;99.90;;;;;;5090201;28;20053;-59
2021/07/05 09:07:27;;;;;;;;;;;22.30;99.90;;;;;;5090068;28;20444;-60
2021/07/05 09:10:18;;;;;;;;;;;22.30;99.90;;;;;;5090243;28;20024;-59
2021/07/05 09:12:44;;;;;;;;;;;22.20;99.90;;;;;;5087224;28;19919;-62
2021/07/05 09:15:11;;;;;;;;;;;22.10;99.90;;;;;;5090183;28;19909;-58
2021/07/05 09:17:37;;;;;;;;;;;22.00;99.90;;;;;;5089173;28;19908;-59
2021/07/05 09:20:17;;;;;;;;;;;21.90;99.90;;;;;;5088765;28;20340;-59
2021/07/05 09:23:01;;;;;;;;;;;21.90;99.90;;;;;;5090407;28;20101;-56
2021/07/05 09:25:33;;;;;;;;;;;22.00;99.90;;;;;;5090033;28;20403;-59
2021/07/05 09:27:59;;;;;;;;;;;22.00;99.90;;;;;;5090250;28;19908;-56
2021/07/05 09:30:33;;;;;;;;;;;22.10;99.90;;;;;;5089059;28;19924;-60
2021/07/05 09:33:19;;;;;;;;;;;22.10;99.90;;;;;;5091074;28;19908;-57
2021/07/05 09:35:45;;;;;;;;;;;22.10;99.90;;;;;;5095647;28;19915;-59
2021/07/05 09:38:10;;;;;;;;;;;22.10;99.90;;;;;;5093878;28;19916;-60
2021/07/05 09:40:36;;;;;;;;;;;22.00;99.90;;;;;;5093346;28;20002;-58
2021/07/05 09:43:04;;;;;;;;;;;21.70;99.90;;;;;;5094461;28;20333;-61
2021/07/05 09:45:31;;;;;;;;;;;21.50;1.00;;;;;;5094420;28;20269;-55
2021/07/05 09:48:16;;;;;;;;;;;21.40;1.00;;;;;;5093423;28;19919;-61
2021/07/05 09:50:42;;;;;;;;;;;21.20;1.00;;;;;;5093129;28;19918;-57
2021/07/05 09:53:28;;;;;;;;;;;21.10;1.00;;;;;;5092735;28;20006;-57
2021/07/05 09:55:53;;;;;;;;;;;21.20;1.00;;;;;;5093417;28;19908;-60
2021/07/05 09:58:31;;;;;;;;;;;21.50;1.00;;;;;;5092874;28;19986;-61
2021/07/05 10:00:56;;;;;;;;;;;21.90;1.00;;;;;;5092975;28;19943;-60
2021/07/05 10:03:34;;;;;;;;;;;22.10;1.00;;;;;;5093419;28;20021;-58
2021/07/05 10:06:13;;;;;;;;;;;22.30;99.90;;;;;;5093501;28;20276;-56
2021/07/05 10:08:39;;;;;;;;;;;22.20;99.90;;;;;;5080853;28;19913;-57
2021/07/05 10:11:06;;;;;;;;;;;21.60;99.90;;;;;;5073164;28;20273;-56
2021/07/05 10:13:32;;;;;;;;;;;21.60;99.90;;;;;;5073679;28;19909;-59
2021/07/05 10:16:01;;;;;;;;;;;21.60;99.90;;;;;;5073661;28;19909;-59
2021/07/05 10:18:26;;;;;;;;;;;21.70;99.90;;;;;;5072603;28;19928;-58
2021/07/05 10:20:52;;;;;;;;;;;21.40;99.90;;;;;;5072986;28;20008;-57
2021/07/05 10:23:19;;;;;;;;;;;21.30;99.90;;;;;;5082025;28;19908;-59
2021/07/05 10:25:46;;;;;;;;;;;21.30;99.90;;;;;;5075605;28;19913;-59
2021/07/05 10:28:12;;;;;;;;;;;21.40;99.90;;;;;;5071848;28;19920;-58
2021/07/05 10:30:38;;;;;;;;;;;21.60;99.90;;;;;;5072578;28;19920;-58
2021/07/05 10:33:04;;;;;;;;;;;21.70;99.90;;;;;;5072540;28;20374;-59
2021/07/05 10:35:38;;;;;;;;;;;21.90;99.90;;;;;;5072566;28;20303;-61
2021/07/05 10:38:11;;;;;;;;;;;22.10;99.90;;;;;;5054755;28;20373;-58
2021/07/05 10:40:39;;;;;;;;;;;22.20;99.90;;;;;;5072417;28;19909;-57
2021/07/05 10:43:05;;;;;;;;;;;22.40;99.90;;;;;;5072881;28;19909;-59
2021/07/05 10:45:39;;;;;;;;;;;22.60;94.70;;;;;;5071142;28;19932;-57
2021/07/05 10:48:06;;;;;;;;;;;22.80;14.60;;;;;;5072188;28;19908;-61
2021/07/05 10:50:35;;;;;;;;;;;22.90;1.00;;;;;;5072340;28;20289;-59
2021/07/05 10:53:00;;;;;;;;;;;22.70;34.50;;;;;;5072282;28;20186;-56
2021/07/05 10:55:37;;;;;;;;;;;22.80;1.80;;;;;;5072289;28;19912;-58
2021/07/05 10:58:03;;;;;;;;;;;22.60;1.00;;;;;;5071860;28;19923;-57
2021/07/05 11:00:45;;;;;;;;;;;22.10;98.20;;;;;;5092193;28;19916;-61
2021/07/05 11:03:10;;;;;;;;;;;21.80;99.90;;;;;;5092952;28;19919;-60
2021/07/05 11:05:38;;;;;;;;;;;21.60;99.90;;;;;;5092859;28;20279;-58
2021/07/05 11:08:17;;;;;;;;;;;21.60;1.00;;;;;;5084444;28;19931;-57
2021/07/05 11:10:44;;;;;;;;;;;21.60;1.00;;;;;;5071182;28;19932;-56
2021/07/05 11:13:09;;;;;;;;;;;21.60;1.00;;;;;;5071655;28;19927;-58
2021/07/05 11:15:53;;;;;;;;;;;21.20;1.00;;;;;;5072102;28;20421;-63
2021/07/05 11:18:37;;;;;;;;;;;21.00;1.00;;;;;;5070980;28;19908;-57
2021/07/05 11:21:23;;;;;;;;;;;20.90;99.90;;;;;;5070843;28;19916;-56
2021/07/05 11:23:55;;;;;;;;;;;20.90;99.90;;;;;;5020286;28;19935;-56
2021/07/05 11:26:25;;;;;;;;;;;21.10;99.90;;;;;;5090974;28;19999;-57
2021/07/05 11:29:10;;;;;;;;;;;21.10;1.00;;;;;;5091249;28;19955;-57
2021/07/05 11:31:47;;;;;;;;;;;21.00;99.90;;;;;;5091053;28;20384;-59
2021/07/05 11:34:35;;;;;;;;;;;21.00;1.00;;;;;;5091142;28;19989;-56
2021/07/05 11:37:13;;;;;;;;;;;20.40;99.90;;;;;;5092256;28;19956;-57
2021/07/05 11:39:39;;;;;;;;;;;20.30;99.90;;;;;;5090590;28;19912;-59
2021/07/05 11:42:04;;;;;;;;;;;20.20;99.90;;;;;;5091280;28;20369;-60
2021/07/05 11:44:49;;;;;;;;;;;20.10;1.00;;;;;;5091337;28;19937;-59
2021/07/05 11:47:34;;;;;;;;;;;20.10;1.00;;;;;;5088049;28;19958;-60
2021/07/05 11:50:17;;;;;;;;;;;20.10;1.00;;;;;;5087914;28;19930;-58
2021/07/05 11:52:49;;;;;;;;;;;20.10;99.90;;;;;;5090941;28;20019;-58
2021/07/05 11:55:14;;;;;;;;;;;19.80;99.90;;;;;;5090007;28;19996;-62
2021/07/05 11:57:46;;;;;;;;;;;20.00;99.90;;;;;;5089297;28;19930;-58
2021/07/05 12:00:12;;;;;;;;;;;20.20;99.90;;;;;;5071401;28;19924;-59
2021/07/05 12:02:38;;;;;;;;;;;20.50;28.40;;;;;;5075729;28;19914;-58
2021/07/05 12:05:05;;;;;;;;;;;20.80;1.00;;;;;;5090993;28;19915;-59
2021/07/05 12:07:30;;;;;;;;;;;21.00;1.00;;;;;;5087308;28;19913;-62
2021/07/05 12:09:56;;;;;;;;;;;21.10;99.90;;;;;;5069657;28;20209;-58
2021/07/05 12:12:22;;;;;;;;;;;20.90;99.90;;;;;;5056924;28;19960;-58
2021/07/05 12:14:49;;;;;;;;;;;21.60;99.90;;;;;;5078770;28;19918;-59
2021/07/05 12:17:15;;;;;;;;;;;22.10;99.90;;;;;;5077588;28;19912;-59
2021/07/05 12:19:42;;;;;;;;;;;22.00;99.90;;;;;;5078478;28;19908;-59
2021/07/05 12:22:10;;;;;;;;;;;22.10;1.00;;;;;;5086373;28;19955;-60
2021/07/05 12:24:38;;;;;;;;;;;21.70;1.00;;;;;;5078314;28;19985;-62
2021/07/05 12:27:05;;;;;;;;;;;22.00;95.20;;;;;;5077515;28;19912;-60
2021/07/05 12:29:35;;;;;;;;;;;22.30;47.50;;;;;;5074322;28;19909;-61
2021/07/05 12:32:15;;;;;;;;;;;22.40;1.00;;;;;;5079551;28;19998;-59
2021/07/05 12:34:43;;;;;;;;;;;22.60;1.00;;;;;;5078980;28;19916;-59
2021/07/05 12:37:19;;;;;;;;;;;22.60;99.90;;;;;;5080319;28;19912;-61
2021/07/05 12:39:46;;;;;;;;;;;22.90;99.90;;;;;;5077993;28;20006;-62
2021/07/05 12:42:19;;;;;;;;;;;22.80;99.90;;;;;;5079460;28;20010;-60
2021/07/05 12:44:45;;;;;;;;;;;23.30;88.80;;;;;;5077045;28;20270;-60
2021/07/05 12:47:10;;;;;;;;;;;23.70;99.90;;;;;;5076041;28;20201;-63
2021/07/05 12:49:36;;;;;;;;;;;24.10;1.00;;;;;;5068508;28;20067;-61
2021/07/05 12:52:02;;;;;;;;;;;24.30;1.00;;;;;;5053987;28;19924;-61
2021/07/05 12:54:28;;;;;;;;;;;24.00;1.00;;;;;;5058749;28;19995;-60
2021/07/05 12:57:04;;;;;;;;;;;24.10;1.00;;;;;;5078250;28;19912;-61
2021/07/05 12:59:32;;;;;;;;;;;24.20;1.00;;;;;;5080474;28;20273;-61
2021/07/05 13:01:57;;;;;;;;;;;24.40;1.00;;;;;;5074634;22;19929;-62
2021/07/05 13:04:24;;;;;;;;;;;24.80;1.00;;;;;;5037059;28;19916;-62
2021/07/05 13:07:00;;;;;;;;;;;25.30;1.00;;;;;;5035932;28;19916;-62
2021/07/05 13:09:27;;;;;;;;;;;25.60;1.00;;;;;;5036966;28;20383;-61
2021/07/05 13:11:52;;;;;;;;;;;26.20;1.00;;;;;;5036569;28;19921;-61
2021/07/05 13:14:18;;;;;;;;;;;26.30;99.90;;;;;;5035983;28;19951;-60
2021/07/05 13:16:44;;;;;;;;;;;26.10;99.90;;;;;;5036903;28;20368;-62
2021/07/05 13:19:12;;;;;;;;;;;25.90;99.90;;;;;;5036162;28;19948;-62
2021/07/05 13:21:38;;;;;;;;;;;25.60;99.90;;;;;;5036737;28;20115;-62
2021/07/05 13:24:33;;;;;;;;;;;25.20;99.90;;;;;;5037256;28;19928;-61
2021/07/05 13:27:01;;;;;;;;;;;24.60;99.90;;;;;;5019531;28;19982;-61
2021/07/05 13:29:33;;;;;;;;;;;23.90;99.90;;;;;;5036453;28;19912;-59
2021/07/05 13:32:00;;;;;;;;;;;23.20;99.90;;;;;;5034684;28;19917;-61
2021/07/05 13:34:36;;;;;;;;;;;22.60;1.00;;;;;;5036680;28;19952;-58
2021/07/05 13:37:03;;;;;;;;;;;22.20;1.00;;;;;;5027641;28;19921;-61
2021/07/05 13:39:30;;;;;;;;;;;21.40;1.00;;;;;;5027390;28;20276;-61
2021/07/05 13:42:02;;;;;;;;;;;21.00;85.10;;;;;;5026211;28;19909;-61
2021/07/05 13:44:27;;;;;;;;;;;20.70;99.90;;;;;;5028047;28;20345;-61
2021/07/05 13:47:11;;;;;;;;;;;20.60;1.00;;;;;;5027448;28;20004;-60
2021/07/05 13:49:36;;;;;;;;;;;20.70;1.00;;;;;;5027467;28;19909;-61
2021/07/05 13:52:02;;;;;;;;;;;20.80;1.00;;;;;;5009096;28;20400;-61
2021/07/05 13:54:28;;;;;;;;;;;21.10;99.90;;;;;;5027952;28;19932;-61
2021/07/05 13:57:07;;;;;;;;;;;21.50;1.00;;;;;;5027231;28;19913;-61
2021/07/05 13:59:33;;;;;;;;;;;21.70;1.00;;;;;;5040030;28;19955;-59
2021/07/05 14:01:58;;;;;;;;;;;21.90;99.90;;;;;;5046532;28;20412;-62
2021/07/05 14:04:24;;;;;;;;;;;22.40;99.90;;;;;;5047579;28;19909;-62
2021/07/05 14:06:49;;;;;;;;;;;22.80;42.80;;;;;;5046744;28;20368;-60
2021/07/05 14:09:15;;;;;;;;;;;23.10;1.00;;;;;;5046168;28;20099;-62
2021/07/05 14:11:40;;;;;;;;;;;23.30;1.00;;;;;;5046819;28;19917;-62
2021/07/05 14:14:06;;;;;;;;;;;23.30;1.00;;;;;;5047613;28;19912;-62
2021/07/05 14:16:34;;;;;;;;;;;23.30;1.00;;;;;;5047628;28;19956;-57
2021/07/05 14:18:59;;;;;;;;;;;23.30;1.00;;;;;;5047010;28;19955;-62
2021/07/05 14:21:27;;;;;;;;;;;23.30;1.00;;;;;;5032441;28;19944;-60
2021/07/05 14:23:53;;;;;;;;;;;23.40;1.00;;;;;;5049412;28;19967;-62
2021/07/05 14:26:19;;;;;;;;;;;23.30;1.00;;;;;;5030534;28;20323;-61
2021/07/05 14:28:44;;;;;;;;;;;23.30;1.00;;;;;;5030247;28;20004;-61